createdAt,value
2023-01-15T00:02:28.572Z,10.97
2023-01-15T00:05:03.128Z,11.22
2023-01-15T00:07:32.801Z,11.26
2023-01-15T00:10:02.342Z,11.00
2023-01-15T00:12:31.898Z,11.43
2023-01-15T00:15:01.421Z,11.56
2023-01-15T00:17:31.057Z,11.01
2023-01-15T00:20:03.140Z,11.33
2023-01-15T00:22:32.732Z,11.65
2023-01-15T00:25:14.880Z,11.44
2023-01-15T00:27:46.042Z,11.15
2023-01-15T00:30:19.282Z,11.19
2023-01-15T00:32:49.413Z,11.15
2023-01-15T00:35:23.584Z,11.37
2023-01-15T00:37:53.325Z,11.56
2023-01-15T00:40:23.292Z,11.41
2023-01-15T00:42:54.881Z,11.65
2023-01-15T00:45:25.002Z,11.52
2023-01-15T00:47:54.700Z,11.57
2023-01-15T00:50:26.893Z,11.59
2023-01-15T00:52:56.442Z,11.52
2023-01-15T00:55:26.042Z,11.60
2023-01-15T00:57:55.574Z,11.31
2023-01-15T01:00:25.326Z,11.15
2023-01-15T01:02:54.925Z,11.08
2023-01-15T01:05:27.106Z,10.93
2023-01-15T01:07:56.652Z,10.98
2023-01-15T01:10:26.189Z,10.94
2023-01-15T01:12:56.410Z,11.05
2023-01-15T01:15:26.281Z,11.13
2023-01-15T01:17:55.827Z,10.87
2023-01-15T01:20:29.100Z,10.72
2023-01-15T01:23:00.665Z,10.53
2023-01-15T01:25:30.279Z,10.12
2023-01-15T01:27:59.802Z,9.97
2023-01-15T01:30:29.808Z,9.91
2023-01-15T01:33:00.408Z,9.85
2023-01-15T01:35:32.530Z,9.71
2023-01-15T01:38:02.303Z,9.68
2023-01-15T01:40:31.854Z,9.69
2023-01-15T01:43:01.409Z,9.53
2023-01-15T01:45:35.313Z,9.54
2023-01-15T01:48:08.748Z,9.46
2023-01-15T01:50:43.318Z,9.44
2023-01-15T01:53:17.233Z,9.51
2023-01-15T01:55:47.180Z,9.36
2023-01-15T01:58:17.733Z,9.29
2023-01-15T02:00:51.505Z,9.34
2023-01-15T02:03:22.993Z,9.30
2023-01-15T02:06:01.133Z,9.25
2023-01-15T02:08:32.516Z,9.27
2023-01-15T02:11:02.096Z,9.33
2023-01-15T02:13:39.662Z,9.34
2023-01-15T02:16:14.846Z,9.21
2023-01-15T02:18:50.972Z,9.05
2023-01-15T02:21:31.939Z,8.38
2023-01-15T02:24:10.218Z,7.87
2023-01-15T02:27:08.366Z,7.27
2023-01-15T02:29:55.150Z,6.96
2023-01-15T02:32:32.519Z,6.81
2023-01-15T02:35:08.782Z,6.86
2023-01-15T02:37:44.544Z,6.53
2023-01-15T02:40:15.801Z,6.51
2023-01-15T02:42:51.029Z,6.48
2023-01-15T02:45:27.286Z,6.41
2023-01-15T02:48:05.953Z,6.37
2023-01-15T02:50:41.327Z,6.04
2023-01-15T02:53:15.210Z,6.02
2023-01-15T02:55:49.799Z,5.97
2023-01-15T02:58:28.351Z,5.82
2023-01-15T03:01:05.275Z,5.88
2023-01-15T03:03:40.708Z,5.78
2023-01-15T03:06:16.724Z,5.85
2023-01-15T03:08:46.793Z,5.90
2023-01-15T03:11:19.097Z,5.89
2023-01-15T03:14:03.816Z,5.92
2023-01-15T03:16:35.885Z,5.81
2023-01-15T03:19:12.922Z,5.78
2023-01-15T03:21:50.802Z,5.73
2023-01-15T03:24:28.044Z,5.75
2023-01-15T03:26:57.815Z,5.76
2023-01-15T03:29:35.488Z,5.53
2023-01-15T03:32:06.186Z,5.46
2023-01-15T03:34:40.669Z,5.32
2023-01-15T03:37:10.756Z,5.27
2023-01-15T03:39:45.289Z,5.37
2023-01-15T03:42:38.021Z,5.39
2023-01-15T03:45:18.236Z,5.49
2023-01-15T03:47:57.735Z,5.44
2023-01-15T03:50:35.153Z,5.52
2023-01-15T03:53:13.373Z,5.46
2023-01-15T03:55:57.549Z,5.40
2023-01-15T03:58:30.864Z,5.43
2023-01-15T04:01:06.341Z,5.45
2023-01-15T04:03:37.546Z,5.51
2023-01-15T04:06:09.944Z,5.53
2023-01-15T04:08:43.456Z,5.61
2023-01-15T04:11:13.017Z,5.69
2023-01-15T04:13:48.494Z,5.68
2023-01-15T04:16:35.992Z,5.82
2023-01-15T04:19:06.583Z,5.90
2023-01-15T04:21:38.625Z,5.82
2023-01-15T04:24:08.756Z,5.87
2023-01-15T04:26:38.282Z,5.91
2023-01-15T04:29:07.810Z,5.94
2023-01-15T04:31:39.978Z,5.70
2023-01-15T04:34:09.538Z,5.79
2023-01-15T04:36:41.557Z,5.78
2023-01-15T04:39:12.391Z,5.95
2023-01-15T04:41:54.466Z,5.95
2023-01-15T04:44:27.656Z,5.74
2023-01-15T04:47:00.245Z,5.89
2023-01-15T04:49:30.149Z,5.95
2023-01-15T04:51:59.919Z,5.96
2023-01-15T04:54:29.514Z,6.08
2023-01-15T04:56:59.186Z,6.01
2023-01-15T04:59:30.303Z,5.97
2023-01-15T05:02:05.787Z,6.22
2023-01-15T05:04:37.657Z,6.14
2023-01-15T05:07:08.570Z,5.92
2023-01-15T05:09:38.185Z,6.07
2023-01-15T05:12:08.825Z,6.07
2023-01-15T05:14:38.365Z,6.08
2023-01-15T05:17:10.507Z,6.06
2023-01-15T05:19:40.300Z,5.82
2023-01-15T05:22:10.457Z,5.78
2023-01-15T05:24:39.981Z,5.84
2023-01-15T05:27:09.599Z,6.19
2023-01-15T05:29:39.385Z,5.79
2023-01-15T05:32:11.542Z,5.72
2023-01-15T05:34:41.057Z,6.10
2023-01-15T05:37:10.692Z,5.98
2023-01-15T05:39:40.242Z,6.00
2023-01-15T05:42:10.038Z,6.20
2023-01-15T05:44:39.558Z,6.11
2023-01-15T05:47:14.452Z,6.23
2023-01-15T05:49:44.047Z,6.23
2023-01-15T05:52:13.563Z,6.13
2023-01-15T05:54:43.143Z,6.19
2023-01-15T05:57:15.381Z,6.29
2023-01-15T05:59:44.915Z,6.26
2023-01-15T06:02:17.017Z,6.44
2023-01-15T06:04:46.591Z,6.33
2023-01-15T06:07:17.441Z,6.32
2023-01-15T06:09:47.066Z,6.37
2023-01-15T06:12:16.631Z,6.35
2023-01-15T06:14:46.142Z,6.43
2023-01-15T06:17:18.222Z,6.32
2023-01-15T06:19:47.744Z,6.24
2023-01-15T06:22:18.326Z,6.28
2023-01-15T06:24:47.840Z,6.29
2023-01-15T06:27:17.412Z,6.23
2023-01-15T06:29:46.941Z,6.19
2023-01-15T06:32:19.433Z,6.33
2023-01-15T06:34:49.009Z,6.18
2023-01-15T06:37:18.545Z,6.23
2023-01-15T06:39:48.157Z,6.27
2023-01-15T06:42:30.239Z,6.25
2023-01-15T06:45:12.309Z,6.18
2023-01-15T06:47:45.573Z,6.16
2023-01-15T06:50:15.890Z,6.14
2023-01-15T06:52:45.431Z,6.13
2023-01-15T06:55:14.961Z,6.14
2023-01-15T06:57:44.874Z,6.11
2023-01-15T07:00:15.802Z,6.14
2023-01-15T07:02:47.908Z,5.92
2023-01-15T07:05:17.658Z,6.12
2023-01-15T07:07:47.275Z,5.99
2023-01-15T07:10:16.852Z,6.05
2023-01-15T07:12:46.485Z,5.98
2023-01-15T07:15:16.022Z,6.11
2023-01-15T07:17:48.183Z,6.24
2023-01-15T07:20:19.115Z,6.26
2023-01-15T07:22:51.513Z,6.36
2023-01-15T07:25:21.546Z,6.14
2023-01-15T07:27:51.135Z,6.16
2023-01-15T07:30:21.086Z,6.18
2023-01-15T07:32:53.223Z,6.33
2023-01-15T07:35:22.806Z,6.17
2023-01-15T07:37:53.979Z,6.16
2023-01-15T07:40:23.503Z,6.14
2023-01-15T07:43:05.577Z,6.13
2023-01-15T07:46:02.595Z,6.11
2023-01-15T07:48:47.242Z,5.96
2023-01-15T07:51:16.815Z,6.15
2023-01-15T07:53:46.322Z,6.07
2023-01-15T07:56:16.151Z,6.08
2023-01-15T07:58:50.178Z,6.32
2023-01-15T08:01:19.954Z,6.32
2023-01-15T08:03:52.223Z,6.31
2023-01-15T08:06:21.841Z,6.33
2023-01-15T08:08:51.406Z,6.27
2023-01-15T08:11:33.522Z,6.30
2023-01-15T08:14:15.599Z,6.37
2023-01-15T08:16:45.170Z,6.42
2023-01-15T08:19:17.352Z,6.30
2023-01-15T08:21:47.963Z,6.23
2023-01-15T08:24:17.465Z,6.09
2023-01-15T08:26:47.040Z,6.39
2023-01-15T08:29:17.086Z,6.62
2023-01-15T08:31:46.658Z,6.60
2023-01-15T08:34:19.267Z,6.35
2023-01-15T08:36:49.701Z,6.32
2023-01-15T08:39:19.324Z,6.36
2023-01-15T08:41:48.862Z,6.34
2023-01-15T08:44:18.436Z,6.28
2023-01-15T08:46:47.960Z,6.50
2023-01-15T08:49:21.258Z,6.60
2023-01-15T08:51:52.991Z,6.40
2023-01-15T08:54:24.880Z,6.56
2023-01-15T08:56:54.449Z,6.40
2023-01-15T08:59:24.119Z,6.39
2023-01-15T09:01:53.839Z,6.51
2023-01-15T09:04:26.382Z,6.36
2023-01-15T09:06:56.043Z,6.40
2023-01-15T09:09:25.725Z,6.40
2023-01-15T09:11:55.262Z,6.50
2023-01-15T09:14:56.824Z,6.35
2023-01-15T09:17:14.396Z,6.41
2023-01-15T09:19:46.547Z,6.45
2023-01-15T09:22:16.265Z,6.55
2023-01-15T09:24:48.055Z,6.50
2023-01-15T09:27:17.624Z,6.37
2023-01-15T09:29:47.152Z,6.44
2023-01-15T09:32:16.696Z,6.40
2023-01-15T09:34:48.847Z,6.43
2023-01-15T09:37:18.490Z,6.51
2023-01-15T09:39:48.294Z,6.53
2023-01-15T09:42:31.947Z,6.37
2023-01-15T09:45:16.593Z,6.44
2023-01-15T09:47:59.041Z,6.47
2023-01-15T09:50:43.211Z,6.33
2023-01-15T09:53:35.427Z,6.43
2023-01-15T09:56:05.873Z,6.37
2023-01-15T09:58:39.048Z,6.51
2023-01-15T10:01:09.549Z,6.48
2023-01-15T10:03:45.780Z,6.50
2023-01-15T10:06:24.281Z,6.55
2023-01-15T10:08:54.225Z,6.41
2023-01-15T10:11:53.595Z,6.38
2023-01-15T10:14:39.211Z,6.40
2023-01-15T10:17:20.853Z,6.46
2023-01-15T10:19:50.575Z,6.44
2023-01-15T10:22:34.736Z,6.51
2023-01-15T10:25:08.086Z,6.66
2023-01-15T10:27:37.613Z,6.42
2023-01-15T10:30:14.142Z,6.62
2023-01-15T10:33:02.367Z,6.63
2023-01-15T10:35:45.818Z,6.50
2023-01-15T10:38:28.924Z,6.49
2023-01-15T10:41:16.395Z,6.49
2023-01-15T10:43:52.614Z,6.63
2023-01-15T10:46:27.247Z,6.52
2023-01-15T10:49:00.456Z,6.49
2023-01-15T10:51:33.921Z,6.50
2023-01-15T10:54:11.157Z,6.64
2023-01-15T10:56:46.047Z,6.49
2023-01-15T10:59:22.389Z,6.57
2023-01-15T11:01:54.576Z,6.62
2023-01-15T11:04:25.890Z,6.53
2023-01-15T11:06:55.677Z,6.59
2023-01-15T11:09:35.035Z,6.52
2023-01-15T11:12:31.030Z,6.55
2023-01-15T11:15:13.135Z,6.64
2023-01-15T11:17:58.801Z,6.51
2023-01-15T11:20:32.492Z,6.53
2023-01-15T11:23:10.570Z,6.49
2023-01-15T11:25:51.917Z,6.52
2023-01-15T11:28:32.564Z,6.60
2023-01-15T11:31:02.176Z,6.59
2023-01-15T11:33:32.864Z,6.52
2023-01-15T11:36:04.363Z,6.67
2023-01-15T11:38:45.352Z,6.66
2023-01-15T11:41:50.092Z,6.56
2023-01-15T11:44:34.051Z,6.60
2023-01-15T11:47:16.695Z,6.55
2023-01-15T11:50:05.033Z,6.60
2023-01-15T11:52:34.647Z,6.66
2023-01-15T11:55:04.325Z,6.57
2023-01-15T11:57:40.176Z,6.52
2023-01-15T12:00:10.505Z,6.64
2023-01-15T12:02:43.363Z,6.38
2023-01-15T12:05:20.331Z,6.44
2023-01-15T12:07:52.797Z,6.38
2023-01-15T12:10:46.933Z,6.32
2023-01-15T12:13:29.917Z,6.38
2023-01-15T12:16:10.460Z,6.30
2023-01-15T12:18:57.485Z,6.32
2023-01-15T12:21:54.820Z,6.46
2023-01-15T12:25:02.801Z,6.39
2023-01-15T12:27:52.499Z,6.41
2023-01-15T12:30:32.633Z,6.43
2023-01-15T12:33:12.540Z,6.42
2023-01-15T12:35:47.292Z,6.50
2023-01-15T12:38:23.720Z,6.41
2023-01-15T12:41:00.000Z,6.43
2023-01-15T12:43:43.507Z,6.32
2023-01-15T12:46:19.900Z,6.35
2023-01-15T12:48:54.589Z,6.31
2023-01-15T12:51:32.249Z,6.35
2023-01-15T12:54:07.084Z,6.37
2023-01-15T12:56:47.974Z,6.29
2023-01-15T12:59:21.351Z,6.25
2023-01-15T13:01:59.743Z,6.33
2023-01-15T13:04:37.147Z,6.26
2023-01-15T13:07:16.844Z,6.31
2023-01-15T13:09:52.465Z,6.37
2023-01-15T13:12:22.026Z,6.29
2023-01-15T13:14:52.072Z,6.10
2023-01-15T13:17:34.194Z,6.21
2023-01-15T13:20:28.321Z,6.26
2023-01-15T13:23:10.338Z,6.36
2023-01-15T13:25:57.220Z,6.34
2023-01-15T13:28:46.354Z,6.31
2023-01-15T13:31:37.598Z,6.33
2023-01-15T13:34:18.221Z,6.30
2023-01-15T13:36:50.675Z,6.36
2023-01-15T13:39:24.291Z,6.33
2023-01-15T13:42:08.903Z,6.30
2023-01-15T13:44:42.943Z,6.33
2023-01-15T13:47:17.183Z,6.42
2023-01-15T13:49:53.540Z,6.33
2023-01-15T13:52:30.929Z,6.27
2023-01-15T13:55:07.355Z,6.22
2023-01-15T13:57:40.472Z,6.25
2023-01-15T14:00:12.250Z,6.25
2023-01-15T14:02:42.352Z,6.32
2023-01-15T14:05:29.872Z,6.30
2023-01-15T14:08:01.375Z,6.29
2023-01-15T14:10:40.584Z,6.29
2023-01-15T14:13:34.939Z,6.27
2023-01-15T14:16:16.624Z,6.34
2023-01-15T14:19:08.056Z,6.32
2023-01-15T14:21:50.166Z,6.33
2023-01-15T14:24:42.152Z,6.22
2023-01-15T14:27:20.133Z,6.32
2023-01-15T14:30:20.887Z,6.23
2023-01-15T14:33:03.330Z,6.13
2023-01-15T14:35:38.756Z,6.18
2023-01-15T14:38:18.179Z,6.08
2023-01-15T14:40:59.833Z,6.18
2023-01-15T14:43:33.519Z,6.16
2023-01-15T14:46:16.913Z,6.11
2023-01-15T14:48:46.542Z,6.04
2023-01-15T14:51:18.333Z,6.07
2023-01-15T14:53:53.930Z,6.05
2023-01-15T14:56:26.326Z,6.01
2023-01-15T14:59:02.183Z,5.96
2023-01-15T15:01:41.974Z,6.19
2023-01-15T15:04:32.083Z,6.13
2023-01-15T15:07:04.810Z,6.15
2023-01-15T15:09:43.945Z,6.21
2023-01-15T15:12:30.716Z,6.14
2023-01-15T15:15:07.510Z,6.16
2023-01-15T15:17:43.428Z,6.04
2023-01-15T15:20:36.888Z,6.14
2023-01-15T15:23:12.989Z,6.13
2023-01-15T15:25:48.552Z,6.09
2023-01-15T15:28:18.070Z,6.11
2023-01-15T15:30:48.980Z,6.19
2023-01-15T15:33:21.706Z,6.31
2023-01-15T15:35:55.373Z,6.33
2023-01-15T15:38:27.395Z,6.26
2023-01-15T15:41:02.547Z,6.41
2023-01-15T15:43:54.780Z,6.44
2023-01-15T15:46:42.238Z,6.46
2023-01-15T15:49:12.802Z,6.44
2023-01-15T15:51:48.709Z,6.39
2023-01-15T15:54:20.337Z,6.36
2023-01-15T15:56:58.324Z,6.45
2023-01-15T15:59:32.593Z,6.47
2023-01-15T16:02:10.723Z,6.61
2023-01-15T16:04:40.342Z,6.63
2023-01-15T16:07:15.603Z,6.49
2023-01-15T16:09:52.250Z,6.58
2023-01-15T16:12:25.389Z,6.62
2023-01-15T16:14:56.348Z,6.47
2023-01-15T16:17:29.057Z,6.58
2023-01-15T16:20:00.414Z,6.63
2023-01-15T16:22:30.074Z,6.57
2023-01-15T16:25:01.382Z,6.64
2023-01-15T16:27:37.171Z,6.56
2023-01-15T16:30:06.976Z,6.48
2023-01-15T16:32:39.319Z,6.37
2023-01-15T16:35:17.596Z,6.48
2023-01-15T16:37:50.564Z,6.47
2023-01-15T16:40:28.914Z,6.39
2023-01-15T16:43:15.640Z,6.24
2023-01-15T16:46:04.957Z,6.15
2023-01-15T16:48:41.814Z,6.14
2023-01-15T16:51:34.012Z,6.31
2023-01-15T16:54:05.018Z,6.21
2023-01-15T16:56:53.549Z,6.25
2023-01-15T17:00:02.199Z,6.31
2023-01-15T17:02:37.703Z,6.22
2023-01-15T17:05:19.722Z,6.13
2023-01-15T17:07:50.174Z,6.17
2023-01-15T17:10:28.750Z,6.43
2023-01-15T17:12:58.898Z,6.47
2023-01-15T17:15:39.302Z,6.47
2023-01-15T17:18:33.332Z,6.32
2023-01-15T17:21:03.883Z,6.21
2023-01-15T17:23:37.912Z,6.25
2023-01-15T17:26:09.459Z,6.17
2023-01-15T17:28:39.109Z,6.07
2023-01-15T17:31:22.709Z,6.13
2023-01-15T17:33:53.328Z,6.14
2023-01-15T17:36:24.166Z,6.19
2023-01-15T17:38:54.485Z,6.42
2023-01-15T17:41:25.401Z,6.33
2023-01-15T17:43:55.252Z,6.18
2023-01-15T17:46:27.479Z,6.18
2023-01-15T17:48:57.039Z,6.16
2023-01-15T17:51:26.958Z,6.10
2023-01-15T17:53:56.547Z,6.02
2023-01-15T17:56:38.864Z,6.01
2023-01-15T17:59:21.001Z,5.95
2023-01-15T18:02:05.863Z,5.96
2023-01-15T18:04:52.894Z,6.02
2023-01-15T18:07:26.132Z,5.81
2023-01-15T18:09:57.388Z,5.95
2023-01-15T18:12:26.910Z,6.03
2023-01-15T18:14:56.488Z,6.11
2023-01-15T18:17:29.097Z,6.13
2023-01-15T18:19:58.665Z,6.08
2023-01-15T18:22:29.820Z,6.06
2023-01-15T18:24:59.743Z,6.08
2023-01-15T18:27:30.341Z,6.01
2023-01-15T18:30:02.893Z,6.04
2023-01-15T18:32:35.122Z,5.97
2023-01-15T18:35:04.657Z,6.12
2023-01-15T18:37:35.071Z,6.13
2023-01-15T18:40:04.664Z,6.08
2023-01-15T18:42:46.866Z,6.20
2023-01-15T18:45:29.036Z,6.15
2023-01-15T18:48:03.284Z,6.20
2023-01-15T18:50:32.908Z,6.26
2023-01-15T18:53:02.456Z,6.22
2023-01-15T18:55:32.038Z,6.17
2023-01-15T18:58:01.590Z,6.16
2023-01-15T19:00:31.172Z,6.12
2023-01-15T19:03:04.707Z,5.98
2023-01-15T19:05:34.290Z,5.92
2023-01-15T19:08:04.022Z,6.08
2023-01-15T19:10:33.572Z,6.07
2023-01-15T19:13:05.508Z,6.29
2023-01-15T19:15:47.643Z,6.28
2023-01-15T19:18:32.323Z,6.11
2023-01-15T19:21:01.893Z,6.10
2023-01-15T19:23:31.477Z,6.22
2023-01-15T19:26:01.269Z,6.10
2023-01-15T19:28:33.481Z,6.18
2023-01-15T19:31:15.887Z,6.15
2023-01-15T19:33:48.041Z,6.12
2023-01-15T19:36:17.578Z,6.20
2023-01-15T19:38:47.107Z,6.11
2023-01-15T19:41:38.233Z,6.10
2023-01-15T19:44:20.654Z,6.03
2023-01-15T19:47:02.816Z,5.96
2023-01-15T19:49:51.186Z,6.10
2023-01-15T19:52:33.413Z,6.03
2023-01-15T19:55:03.418Z,6.13
2023-01-15T19:57:33.033Z,6.11
2023-01-15T20:00:02.585Z,6.02
2023-01-15T20:02:36.634Z,6.16
2023-01-15T20:05:10.721Z,5.98
2023-01-15T20:07:40.591Z,6.00
2023-01-15T20:10:12.788Z,6.06
2023-01-15T20:12:54.903Z,5.95
2023-01-15T20:15:24.804Z,5.88
2023-01-15T20:17:54.349Z,6.13
2023-01-15T20:20:26.604Z,6.04
2023-01-15T20:22:57.913Z,6.00
2023-01-15T20:25:28.472Z,6.06
2023-01-15T20:27:59.186Z,5.99
2023-01-15T20:30:29.932Z,5.98
2023-01-15T20:33:00.779Z,6.02
2023-01-15T20:35:33.858Z,5.91
2023-01-15T20:38:03.972Z,6.01
2023-01-15T20:40:33.508Z,6.12
2023-01-15T20:43:15.658Z,6.07
2023-01-15T20:45:45.314Z,6.02
2023-01-15T20:48:27.392Z,5.95
2023-01-15T20:51:06.028Z,6.12
2023-01-15T20:53:36.908Z,6.01
2023-01-15T20:56:14.473Z,5.99
2023-01-15T20:58:45.159Z,5.98
2023-01-15T21:01:14.976Z,5.93
2023-01-15T21:03:44.599Z,5.89
2023-01-15T21:06:16.743Z,5.94
2023-01-15T21:08:46.420Z,5.93
2023-01-15T21:11:16.066Z,5.87
2023-01-15T21:13:47.293Z,5.80
2023-01-15T21:16:17.553Z,5.86
2023-01-15T21:18:49.136Z,5.87
2023-01-15T21:21:22.781Z,5.73
2023-01-15T21:23:52.385Z,5.64
2023-01-15T21:26:24.357Z,5.73
2023-01-15T21:28:55.876Z,5.66
2023-01-15T21:31:25.721Z,5.71
2023-01-15T21:33:56.540Z,5.73
2023-01-15T21:36:28.675Z,5.74
2023-01-15T21:38:58.954Z,5.64
2023-01-15T21:41:41.564Z,5.69
2023-01-15T21:44:27.019Z,5.62
2023-01-15T21:46:56.609Z,5.78
2023-01-15T21:49:26.555Z,5.69
2023-01-15T21:51:58.652Z,5.68
2023-01-15T21:54:28.522Z,5.63
2023-01-15T21:56:58.740Z,5.71
2023-01-15T21:59:28.787Z,5.65
2023-01-15T22:01:59.749Z,5.51
2023-01-15T22:04:32.094Z,5.65
2023-01-15T22:07:04.264Z,5.66
2023-01-15T22:09:33.805Z,5.46
2023-01-15T22:12:03.418Z,5.65
2023-01-15T22:14:35.035Z,5.76
2023-01-15T22:17:07.272Z,5.78
2023-01-15T22:19:37.488Z,5.87
2023-01-15T22:22:12.301Z,5.92
2023-01-15T22:24:42.718Z,5.78
2023-01-15T22:27:18.982Z,5.70
2023-01-15T22:29:48.554Z,5.73
2023-01-15T22:32:18.754Z,5.77
2023-01-15T22:34:50.216Z,5.68
2023-01-15T22:37:22.469Z,5.75
2023-01-15T22:39:52.569Z,5.73
2023-01-15T22:42:28.206Z,5.79
2023-01-15T22:45:00.503Z,5.70
2023-01-15T22:47:30.496Z,5.71
2023-01-15T22:50:00.087Z,5.72
2023-01-15T22:52:32.227Z,5.70
2023-01-15T22:55:01.755Z,5.84
2023-01-15T22:57:31.314Z,5.67
2023-01-15T23:00:01.103Z,5.68
2023-01-15T23:02:43.241Z,5.76
2023-01-15T23:05:13.661Z,5.61
2023-01-15T23:07:45.853Z,5.57
2023-01-15T23:10:16.328Z,5.58
2023-01-15T23:12:46.481Z,5.27
2023-01-15T23:15:16.459Z,5.12
2023-01-15T23:17:46.581Z,5.26
2023-01-15T23:20:16.750Z,5.29
2023-01-15T23:22:48.887Z,5.21
2023-01-15T23:25:18.766Z,4.96
2023-01-15T23:27:48.307Z,5.06
2023-01-15T23:30:18.306Z,5.12
2023-01-15T23:32:47.827Z,5.11
2023-01-15T23:35:17.450Z,4.96
2023-01-15T23:37:49.544Z,4.94
2023-01-15T23:40:19.358Z,4.87
2023-01-15T23:43:01.415Z,4.84
2023-01-15T23:45:43.492Z,4.72
2023-01-15T23:48:13.347Z,4.68
2023-01-15T23:50:42.977Z,4.48
2023-01-15T23:53:15.121Z,4.48
2023-01-15T23:55:44.736Z,4.61
2023-01-15T23:58:14.370Z,4.55
